createdAt,value
2023-04-12T00:07:23.062Z,9.6
2023-04-12T00:15:38.323Z,9.6
2023-04-12T00:23:53.652Z,9.6
2023-04-12T00:32:08.901Z,9.6
2023-04-12T00:40:24.143Z,9.6
2023-04-12T00:56:54.702Z,9.5
2023-04-12T01:13:25.211Z,9.3
2023-04-12T01:29:55.745Z,9.4
2023-04-12T01:38:11.029Z,9.4
2023-04-12T01:46:26.354Z,9.4
2023-04-12T01:54:41.674Z,9.4
2023-04-12T02:02:56.872Z,9.4
2023-04-12T02:11:12.119Z,9.3
2023-04-12T02:19:27.362Z,9.3
2023-04-12T02:27:42.624Z,9.3
2023-04-12T02:35:57.938Z,9.3
2023-04-12T02:44:13.137Z,9.4
2023-04-12T02:52:28.388Z,9.4
2023-04-12T03:00:43.652Z,9.4
2023-04-12T03:08:58.925Z,9.4
2023-04-12T03:17:14.187Z,9.4
2023-04-12T03:25:29.461Z,9.4
2023-04-12T03:33:44.880Z,9.4
2023-04-12T03:42:00.029Z,9.4
2023-04-12T03:50:15.359Z,9.4
2023-04-12T03:58:30.580Z,9.4
2023-04-12T04:06:45.849Z,9.4
2023-04-12T04:23:16.404Z,9.3
2023-04-12T04:31:31.700Z,9.2
2023-04-12T04:39:46.977Z,9.3
2023-04-12T04:48:02.284Z,9.3
2023-04-12T04:56:17.507Z,9.2
2023-04-12T05:04:32.774Z,9.3
2023-04-12T05:12:48.056Z,9.3
2023-04-12T05:21:03.378Z,9.4
2023-04-12T05:29:18.705Z,9.5
2023-04-12T05:37:33.948Z,9.6
2023-04-12T05:45:49.295Z,9.7
2023-04-12T05:54:04.561Z,9.8
2023-04-12T06:02:19.873Z,10
2023-04-12T06:10:35.157Z,10
2023-04-12T06:18:50.446Z,10.1
2023-04-12T06:27:05.791Z,10.3
2023-04-12T06:35:21.106Z,10.5
2023-04-12T06:43:36.481Z,10.8
2023-04-12T06:51:51.750Z,10.9
2023-04-12T07:00:07.021Z,11.4
2023-04-12T07:16:37.741Z,12.1
2023-04-12T07:33:08.449Z,12.2
2023-04-12T07:49:39.274Z,13.2
2023-04-12T07:57:54.565Z,14.1
2023-04-12T08:06:10.168Z,14
2023-04-12T08:14:25.424Z,13.5
2023-04-12T08:22:40.735Z,14.5
2023-04-12T08:30:56.113Z,15.4
2023-04-12T08:39:11.594Z,15.5
2023-04-12T08:47:27.094Z,15.7
2023-04-12T08:55:42.526Z,15.8
2023-04-12T09:03:57.944Z,15.8
2023-04-12T09:12:13.302Z,14.8
2023-04-12T09:20:28.860Z,13.7
2023-04-12T09:28:44.076Z,13.7
2023-04-12T09:36:59.610Z,13.9
2023-04-12T09:45:14.924Z,14.5
2023-04-12T09:53:30.362Z,15
2023-04-12T10:01:45.750Z,14.5
2023-04-12T10:10:01.244Z,13.4
2023-04-12T10:18:16.524Z,13
2023-04-12T10:26:31.868Z,12.9
2023-04-12T10:43:02.631Z,13
2023-04-12T10:59:33.453Z,13.1
2023-04-12T11:07:48.772Z,13
2023-04-12T11:16:04.205Z,12.8
2023-04-12T11:24:19.504Z,12.5
2023-04-12T11:32:34.866Z,12.3
2023-04-12T11:40:50.172Z,12.5
2023-04-12T11:49:05.531Z,12.7
2023-04-12T11:57:20.950Z,13.1
2023-04-12T12:05:36.364Z,13.2
2023-04-12T12:13:51.742Z,13.1
2023-04-12T12:22:07.294Z,12.9
2023-04-12T20:52:42.854Z,16.6
2023-04-12T20:54:26.994Z,18.1
2023-04-12T20:55:27.530Z,18.7
2023-04-12T21:00:44.018Z,20.2
2023-04-12T21:08:59.859Z,21.1
2023-04-12T21:17:15.727Z,21.6
2023-04-12T21:22:54.818Z,22.2
2023-04-12T21:39:10.872Z,9
2023-04-12T21:47:24.220Z,8
2023-04-12T21:55:37.493Z,7.8
2023-04-12T22:03:50.795Z,7.7
2023-04-12T22:12:04.066Z,7.7
2023-04-12T22:20:17.344Z,7.7
2023-04-12T22:28:30.607Z,7.7
2023-04-12T22:36:43.861Z,7.7
2023-04-12T22:44:57.115Z,7.6
2023-04-12T22:53:10.373Z,7.4
2023-04-12T23:01:23.598Z,7.3
2023-04-12T23:09:36.863Z,7.3
2023-04-12T23:17:50.092Z,7.3
2023-04-12T23:26:03.344Z,7.3
2023-04-12T23:34:16.572Z,7.2
2023-04-12T23:42:29.810Z,7.2
2023-04-12T23:50:43.067Z,7.3
2023-04-12T23:58:56.314Z,7.2
